createdAt,value
2019-04-22T00:01:31.202Z,67.10
2019-04-22T00:04:06.647Z,66.52
2019-04-22T00:06:58.004Z,66.03
2019-04-22T00:09:44.026Z,65.93
2019-04-22T00:12:07.686Z,66.53
2019-04-22T00:14:35.097Z,67.17
2019-04-22T00:17:18.488Z,67.77
2019-04-22T00:19:52.078Z,67.23
2019-04-22T00:24:44.828Z,67.95
2019-04-22T00:27:28.255Z,68.04
2019-04-22T00:32:43.340Z,68.09
2019-04-22T00:35:19.507Z,68.21
2019-04-22T00:37:59.770Z,68.46
2019-04-22T00:40:30.604Z,67.37
2019-04-22T00:42:58.782Z,68.29
2019-04-22T00:45:34.463Z,68.97
2019-04-22T00:48:09.242Z,68.85
2019-04-22T00:50:40.254Z,69.35
2019-04-22T00:53:10.314Z,68.94
2019-04-22T00:56:00.564Z,69.13
2019-04-22T00:58:36.470Z,68.86
2019-04-22T01:01:12.519Z,69.28
2019-04-22T01:03:42.743Z,69.16
2019-04-22T01:06:13.119Z,69.56
2019-04-22T01:08:51.391Z,68.49
2019-04-22T01:11:21.460Z,67.94
2019-04-22T01:13:45.571Z,69.37
2019-04-22T01:18:55.514Z,69.96
2019-04-22T01:21:28.769Z,69.69
2019-04-22T01:23:59.825Z,69.69
2019-04-22T01:26:25.344Z,69.07
2019-04-22T01:29:00.946Z,68.79
2019-04-22T01:31:25.936Z,70.28
2019-04-22T01:34:08.282Z,69.39
2019-04-22T01:36:51.601Z,69.77
2019-04-22T01:39:25.092Z,70.61
2019-04-22T01:42:00.558Z,71.50
2019-04-22T01:44:34.461Z,72.18
2019-04-22T01:47:08.141Z,71.45
2019-04-22T01:49:38.259Z,71.27
2019-04-22T01:52:11.470Z,71.89
2019-04-22T01:54:42.681Z,71.99
2019-04-22T01:57:05.001Z,72.66
2019-04-22T01:59:35.783Z,72.61
2019-04-22T02:02:19.050Z,72.66
2019-04-22T02:04:53.598Z,72.03
2019-04-22T02:07:26.268Z,72.38
2019-04-22T02:09:56.149Z,72.16
2019-04-22T02:12:32.041Z,71.85
2019-04-22T02:15:09.215Z,72.25
2019-04-22T02:17:36.908Z,72.55
2019-04-22T02:20:12.343Z,71.46
2019-04-22T02:23:40.229Z,71.79
2019-04-22T02:25:51.050Z,71.42
2019-04-22T02:28:28.048Z,72.75
2019-04-22T02:31:18.756Z,71.64
2019-04-22T02:33:58.552Z,73.21
2019-04-22T02:36:16.656Z,73.66
2019-04-22T02:38:59.067Z,73.85
2019-04-22T02:44:06.621Z,73.12
2019-04-22T02:59:05.815Z,73.37
2019-04-22T03:01:30.051Z,73.04
2019-04-22T03:09:03.780Z,73.34
2019-04-22T03:11:51.823Z,73.67
2019-04-22T03:14:08.748Z,74.07
2019-04-22T03:21:46.646Z,74.71
2019-04-22T03:26:48.576Z,74.49
2019-04-22T03:30:36.520Z,75.22
2019-04-22T03:37:52.634Z,73.24
2019-04-22T03:40:28.228Z,74.53
2019-04-22T03:42:51.915Z,75.14
2019-04-22T03:50:22.652Z,75.24
2019-04-22T03:55:23.042Z,75.57
2019-04-22T04:03:04.939Z,75.49
2019-04-22T04:08:14.708Z,74.87
2019-04-22T04:13:08.247Z,75.78
2019-04-22T04:18:11.415Z,75.36
2019-04-22T04:28:47.696Z,76.26
2019-04-22T04:31:09.623Z,76.07
2019-04-22T04:33:28.869Z,76.51
2019-04-22T04:36:02.482Z,76.64
2019-04-22T04:38:43.005Z,76.31
2019-04-22T04:43:46.552Z,76.31
2019-04-22T04:46:16.012Z,76.78
2019-04-22T04:51:23.919Z,76.69
2019-04-22T04:54:12.596Z,77.32
2019-04-22T05:06:34.684Z,78.35
2019-04-22T05:09:11.345Z,78.17
2019-04-22T05:14:09.359Z,77.58
2019-04-22T05:16:42.510Z,77.12
2019-04-22T05:19:07.432Z,78.37
2019-04-22T05:21:40.191Z,77.79
2019-04-22T05:24:19.520Z,78.65
2019-04-22T05:29:17.009Z,78.36
2019-04-22T05:31:52.310Z,79.92
2019-04-22T05:39:21.314Z,76.41
2019-04-22T05:41:59.368Z,76.27
2019-04-22T05:44:30.906Z,74.17
2019-04-22T05:47:01.385Z,72.68
2019-04-22T05:49:28.984Z,71.39
2019-04-22T05:52:06.925Z,70.99
2019-04-22T05:54:38.618Z,69.94
2019-04-22T05:57:14.427Z,71.77
2019-04-22T05:59:45.737Z,70.69
2019-04-22T06:02:25.436Z,70.22
2019-04-22T06:04:55.138Z,72.40
2019-04-22T06:07:22.820Z,74.32
2019-04-22T06:10:03.036Z,72.17
2019-04-22T06:12:20.879Z,71.02
2019-04-22T06:15:01.579Z,69.49
2019-04-22T06:17:37.801Z,68.66
2019-04-22T06:20:02.197Z,69.38
2019-04-22T06:22:43.205Z,69.15
2019-04-22T06:25:23.026Z,69.32
2019-04-22T06:27:52.445Z,68.07
2019-04-22T06:30:21.843Z,65.69
2019-04-22T06:32:51.855Z,66.32
2019-04-22T06:35:29.744Z,66.03
2019-04-22T06:38:22.794Z,65.28
2019-04-22T06:40:31.626Z,63.94
2019-04-22T06:43:05.136Z,65.77
2019-04-22T06:45:35.359Z,63.27
2019-04-22T06:48:07.009Z,62.70
2019-04-22T06:50:43.509Z,59.97
2019-04-22T06:53:13.178Z,54.10
2019-04-22T06:55:45.886Z,53.40
2019-04-22T06:58:18.011Z,55.39
2019-04-22T07:00:46.234Z,51.19
2019-04-22T07:05:51.810Z,50.54
2019-04-22T07:10:56.333Z,47.82
2019-04-22T07:18:35.994Z,48.89
2019-04-22T07:21:06.589Z,46.10
2019-04-22T07:23:54.014Z,45.48
2019-04-22T07:26:18.283Z,45.91
2019-04-22T07:29:04.097Z,46.81
2019-04-22T07:31:30.527Z,45.16
2019-04-22T07:34:15.299Z,44.26
2019-04-22T07:39:13.565Z,45.62
2019-04-22T07:41:51.294Z,44.30
2019-04-22T07:44:48.487Z,43.71
2019-04-22T07:47:13.935Z,44.81
2019-04-22T07:49:41.174Z,44.88
2019-04-22T07:52:10.083Z,43.60
2019-04-22T07:54:45.019Z,43.53
2019-04-22T07:57:20.253Z,42.60
2019-04-22T07:59:55.914Z,42.89
2019-04-22T08:02:23.646Z,43.28
2019-04-22T08:07:43.105Z,41.82
2019-04-22T08:10:18.596Z,39.00
2019-04-22T08:12:47.377Z,39.79
2019-04-22T08:15:21.370Z,38.54
2019-04-22T08:20:25.147Z,36.85
2019-04-22T08:23:04.872Z,37.99
2019-04-22T08:25:33.210Z,37.39
2019-04-22T08:28:10.650Z,37.57
2019-04-22T08:33:16.067Z,36.89
2019-04-22T08:38:24.161Z,38.06
2019-04-22T08:41:33.137Z,36.95
2019-04-22T08:43:57.460Z,36.89
2019-04-22T08:46:36.504Z,35.47
2019-04-22T08:49:02.144Z,35.98
2019-04-22T08:51:37.715Z,35.30
2019-04-22T08:54:14.981Z,35.66
2019-04-22T08:59:31.571Z,34.07
2019-04-22T09:01:59.647Z,34.80
2019-04-22T09:04:43.129Z,35.34
2019-04-22T09:07:20.310Z,34.14
2019-04-22T09:12:23.823Z,33.72
2019-04-22T09:15:02.467Z,34.63
2019-04-22T09:17:35.007Z,32.99
2019-04-22T09:20:00.121Z,32.53
2019-04-22T09:22:27.683Z,32.13
2019-04-22T09:25:03.707Z,29.71
2019-04-22T09:30:13.408Z,31.06
2019-04-22T09:32:45.170Z,32.13
2019-04-22T09:35:15.986Z,32.15
2019-04-22T09:40:35.094Z,31.08
2019-04-22T09:43:02.462Z,31.03
2019-04-22T09:45:21.399Z,31.01
2019-04-22T09:48:03.109Z,30.31
2019-04-22T09:50:44.144Z,29.01
2019-04-22T09:53:15.688Z,28.06
2019-04-22T09:55:43.035Z,27.15
2019-04-22T09:58:20.719Z,28.15
2019-04-22T10:03:56.242Z,26.21
2019-04-22T10:06:27.835Z,26.93
2019-04-22T10:09:26.310Z,27.58
2019-04-22T10:11:42.214Z,24.48
2019-04-22T10:14:05.653Z,24.91
2019-04-22T10:16:37.502Z,25.56
2019-04-22T10:19:11.166Z,24.59
2019-04-22T10:24:13.833Z,24.27
2019-04-22T10:29:41.619Z,25.18
2019-04-22T10:31:54.571Z,23.83
2019-04-22T10:34:28.945Z,24.53
2019-04-22T10:36:52.699Z,24.15
2019-04-22T10:39:18.328Z,25.04
2019-04-22T10:41:52.790Z,24.26
2019-04-22T10:44:24.244Z,23.13
2019-04-22T10:46:56.023Z,24.74
2019-04-22T10:49:26.882Z,24.21
2019-04-22T10:52:43.559Z,24.29
2019-04-22T10:55:31.792Z,24.05
2019-04-22T10:58:08.634Z,23.80
2019-04-22T11:00:39.730Z,23.87
2019-04-22T11:03:16.097Z,23.51
2019-04-22T11:05:48.399Z,24.17
2019-04-22T11:08:31.982Z,25.21
2019-04-22T11:11:12.245Z,24.06
2019-04-22T11:13:28.314Z,24.84
2019-04-22T11:16:00.547Z,23.17
2019-04-22T11:18:36.093Z,24.13
2019-04-22T11:21:07.498Z,24.97
2019-04-22T11:23:42.586Z,25.32
2019-04-22T11:26:16.047Z,25.49
2019-04-22T11:28:49.631Z,25.41
2019-04-22T11:31:22.102Z,24.81
2019-04-22T11:33:54.450Z,24.75
2019-04-22T11:36:45.037Z,24.61
2019-04-22T11:39:17.196Z,25.96
2019-04-22T11:41:47.825Z,25.24
2019-04-22T11:44:23.526Z,26.24
2019-04-22T11:46:54.119Z,25.33
2019-04-22T11:49:25.861Z,25.76
2019-04-22T11:51:58.947Z,26.30
2019-04-22T11:54:30.596Z,26.37
2019-04-22T11:57:05.462Z,24.61
2019-04-22T11:59:40.912Z,25.24
2019-04-22T12:02:17.710Z,26.06
2019-04-22T12:04:49.745Z,24.47
2019-04-22T12:07:26.727Z,26.14
2019-04-22T12:09:59.593Z,24.85
2019-04-22T12:12:34.545Z,26.01
2019-04-22T12:15:04.181Z,26.21
2019-04-22T12:17:36.352Z,26.81
2019-04-22T12:20:10.472Z,27.01
2019-04-22T12:22:42.925Z,27.42
2019-04-22T12:25:29.234Z,25.67
2019-04-22T12:27:47.272Z,28.03
2019-04-22T12:30:23.489Z,27.12
2019-04-22T12:32:54.710Z,28.10
2019-04-22T12:35:26.266Z,29.17
2019-04-22T12:38:01.470Z,28.37
2019-04-22T12:40:42.451Z,27.39
2019-04-22T12:43:09.906Z,28.68
2019-04-22T12:45:40.434Z,30.63
2019-04-22T12:48:12.827Z,30.82
2019-04-22T12:50:45.904Z,30.98
2019-04-22T12:53:28.011Z,30.90
2019-04-22T12:55:55.215Z,31.01
2019-04-22T12:58:25.584Z,30.01
2019-04-22T13:01:03.664Z,29.89
2019-04-22T13:03:36.144Z,30.18
2019-04-22T13:06:07.992Z,30.99
2019-04-22T13:08:41.516Z,30.80
2019-04-22T13:11:16.572Z,30.10
2019-04-22T13:13:47.085Z,30.31
2019-04-22T13:16:38.739Z,30.23
2019-04-22T13:19:12.925Z,30.90
2019-04-22T13:21:42.725Z,30.42
2019-04-22T13:24:13.493Z,30.99
2019-04-22T13:26:50.882Z,30.95
2019-04-22T13:29:21.362Z,31.19
2019-04-22T13:31:55.161Z,30.98
2019-04-22T13:34:34.798Z,31.55
2019-04-22T13:37:03.324Z,31.01
2019-04-22T13:39:34.828Z,30.81
2019-04-22T13:42:12.495Z,30.42
2019-04-22T13:44:39.694Z,31.22
2019-04-22T13:47:29.814Z,31.33
2019-04-22T13:50:24.906Z,30.62
2019-04-22T13:52:53.603Z,30.70
2019-04-22T13:55:16.234Z,30.07
2019-04-22T13:57:42.561Z,30.46
2019-04-22T14:00:00.708Z,30.71
2019-04-22T14:02:44.628Z,30.87
2019-04-22T14:05:17.017Z,31.61
2019-04-22T14:07:48.723Z,31.18
2019-04-22T14:10:22.713Z,30.92
2019-04-22T14:13:21.736Z,31.61
2019-04-22T14:15:56.933Z,30.86
2019-04-22T14:18:31.180Z,31.25
2019-04-22T14:21:02.871Z,31.00
2019-04-22T14:23:38.482Z,29.13
2019-04-22T14:26:09.559Z,29.69
2019-04-22T14:28:53.431Z,29.90
2019-04-22T14:31:26.707Z,30.09
2019-04-22T14:34:01.828Z,29.41
2019-04-22T14:36:35.370Z,29.45
2019-04-22T14:39:10.172Z,29.43
2019-04-22T14:41:55.982Z,29.33
2019-04-22T14:47:19.940Z,29.74
2019-04-22T14:50:14.044Z,28.54
2019-04-22T14:52:46.327Z,29.11
2019-04-22T14:55:05.065Z,29.24
2019-04-22T14:57:27.775Z,29.26
2019-04-22T14:59:58.108Z,28.65
2019-04-22T15:02:33.879Z,28.94
2019-04-22T15:05:03.856Z,28.66
2019-04-22T15:07:35.153Z,30.17
2019-04-22T15:10:44.033Z,28.90
2019-04-22T15:17:18.589Z,29.59
2019-04-22T15:20:17.632Z,29.90
2019-04-22T15:22:50.629Z,30.88
2019-04-22T15:25:22.909Z,30.56
2019-04-22T15:27:57.431Z,31.51
2019-04-22T15:30:29.651Z,31.15
2019-04-22T15:33:01.187Z,31.53
2019-04-22T15:35:33.785Z,31.07
2019-04-22T15:38:05.324Z,31.35
2019-04-22T15:40:36.747Z,32.00
2019-04-22T15:43:08.688Z,31.52
2019-04-22T15:45:41.268Z,32.44
2019-04-22T15:48:36.122Z,32.46
2019-04-22T15:51:07.099Z,32.95
2019-04-22T15:53:39.942Z,33.68
2019-04-22T15:56:10.653Z,34.15
2019-04-22T15:58:41.863Z,34.29
2019-04-22T16:01:28.160Z,34.55
2019-04-22T16:03:54.899Z,34.56
2019-04-22T16:06:26.213Z,35.02
2019-04-22T16:09:02.520Z,35.15
2019-04-22T16:11:38.072Z,36.01
2019-04-22T16:14:10.465Z,36.67
2019-04-22T16:16:42.930Z,37.20
2019-04-22T16:19:35.124Z,37.29
2019-04-22T16:22:14.890Z,37.28
2019-04-22T16:27:40.529Z,37.96
2019-04-22T16:30:17.235Z,38.54
2019-04-22T16:32:55.043Z,39.18
2019-04-22T16:35:32.754Z,39.88
2019-04-22T16:38:02.258Z,39.67
2019-04-22T16:40:42.958Z,40.29
2019-04-22T16:43:14.233Z,40.76
2019-04-22T16:45:47.701Z,41.14
2019-04-22T16:48:33.715Z,41.02
2019-04-22T16:51:06.210Z,41.74
2019-04-22T16:53:37.144Z,41.68
2019-04-22T16:56:11.324Z,42.23
2019-04-22T16:58:43.022Z,41.95
2019-04-22T17:01:38.690Z,42.36
2019-04-22T17:04:20.901Z,41.52
2019-04-22T17:06:51.435Z,40.41
2019-04-22T17:09:34.362Z,40.60
2019-04-22T17:12:09.878Z,40.14
2019-04-22T17:15:16.249Z,40.54
2019-04-22T17:17:45.321Z,40.78
2019-04-22T17:20:17.335Z,40.83
2019-04-22T17:22:57.751Z,41.33
2019-04-22T17:25:34.596Z,41.18
2019-04-22T17:28:05.865Z,41.42
2019-04-22T17:30:36.611Z,41.85
2019-04-22T17:33:23.048Z,42.31
2019-04-22T17:35:57.033Z,42.52
2019-04-22T17:38:42.784Z,42.36
2019-04-22T17:41:20.887Z,42.08
2019-04-22T17:44:09.339Z,42.65
2019-04-22T17:46:36.124Z,42.76
2019-04-22T17:49:50.620Z,43.51
2019-04-22T17:52:21.079Z,43.29
2019-04-22T17:54:50.170Z,43.93
2019-04-22T17:57:31.234Z,43.35
2019-04-22T17:59:56.738Z,43.72
2019-04-22T18:02:25.109Z,44.20
2019-04-22T18:04:50.793Z,44.23
2019-04-22T18:07:47.552Z,43.86
2019-04-22T18:10:37.583Z,44.00
2019-04-22T18:13:02.030Z,44.12
2019-04-22T18:15:37.520Z,44.51
2019-04-22T18:18:20.231Z,44.67
2019-04-22T18:20:41.152Z,44.64
2019-04-22T18:23:20.086Z,44.85
2019-04-22T18:26:05.366Z,45.29
2019-04-22T18:28:45.317Z,45.51
2019-04-22T18:31:13.912Z,45.99
2019-04-22T18:33:48.944Z,46.11
2019-04-22T18:36:19.380Z,46.48
2019-04-22T18:39:02.841Z,46.77
2019-04-22T18:41:24.827Z,46.39
2019-04-22T18:44:04.316Z,46.39
2019-04-22T18:46:50.931Z,46.35
2019-04-22T18:49:16.566Z,46.45
2019-04-22T18:54:56.941Z,46.63
2019-04-22T18:57:45.111Z,46.66
2019-04-22T19:00:12.682Z,46.25
2019-04-22T19:02:54.087Z,46.79
2019-04-22T19:05:34.699Z,46.58
2019-04-22T19:08:22.831Z,46.71
2019-04-22T19:11:02.482Z,46.94
2019-04-22T19:13:51.274Z,47.16
2019-04-22T19:16:19.917Z,46.60
2019-04-22T19:18:41.791Z,46.61
2019-04-22T19:21:25.607Z,46.93
2019-04-22T19:24:12.147Z,46.49
2019-04-22T19:29:18.671Z,46.37
2019-04-22T19:31:56.965Z,47.05
2019-04-22T19:34:31.798Z,47.63
2019-04-22T19:37:05.637Z,47.49
2019-04-22T19:39:31.017Z,47.84
2019-04-22T19:42:20.571Z,48.16
2019-04-22T19:44:44.645Z,48.89
2019-04-22T19:49:58.389Z,49.40
2019-04-22T19:52:28.772Z,49.49
2019-04-22T19:55:07.648Z,49.88
2019-04-22T19:57:34.542Z,50.10
2019-04-22T20:00:24.319Z,50.50
2019-04-22T20:03:36.456Z,50.44
2019-04-22T20:06:15.474Z,50.34
2019-04-22T20:09:06.017Z,50.79
2019-04-22T20:11:41.777Z,50.98
2019-04-22T20:14:12.547Z,50.83
2019-04-22T20:16:41.418Z,50.89
2019-04-22T20:19:38.266Z,50.66
2019-04-22T20:22:02.904Z,50.87
2019-04-22T20:24:27.760Z,50.79
2019-04-22T20:27:43.159Z,51.11
2019-04-22T20:30:04.736Z,50.90
2019-04-22T20:32:37.694Z,50.67
2019-04-22T20:35:15.738Z,49.99
2019-04-22T20:37:54.840Z,49.85
2019-04-22T20:40:25.406Z,49.97
2019-04-22T20:43:01.441Z,49.40
2019-04-22T20:45:36.443Z,49.15
2019-04-22T20:47:59.755Z,49.26
2019-04-22T20:50:41.297Z,49.06
2019-04-22T20:53:28.000Z,49.24
2019-04-22T20:55:57.116Z,48.88
2019-04-22T20:58:33.001Z,48.84
2019-04-22T21:00:56.909Z,48.59
2019-04-22T21:03:27.336Z,48.56
2019-04-22T21:06:14.991Z,48.41
2019-04-22T21:08:59.121Z,48.69
2019-04-22T21:11:34.046Z,48.79
2019-04-22T21:14:13.296Z,49.07
2019-04-22T21:16:56.387Z,49.01
2019-04-22T21:19:41.777Z,49.50
2019-04-22T21:22:07.937Z,49.42
2019-04-22T21:24:43.739Z,49.78
2019-04-22T21:27:28.397Z,49.89
2019-04-22T21:29:55.991Z,50.09
2019-04-22T21:32:34.427Z,50.00
2019-04-22T21:35:31.899Z,50.08
2019-04-22T21:38:04.516Z,50.31
2019-04-22T21:40:28.343Z,50.21
2019-04-22T21:43:08.863Z,50.18
2019-04-22T21:45:35.094Z,50.32
2019-04-22T21:48:26.463Z,50.21
2019-04-22T21:53:31.595Z,50.82
2019-04-22T21:56:11.418Z,50.67
2019-04-22T21:58:56.119Z,50.56
2019-04-22T22:01:50.054Z,50.67
2019-04-22T22:04:18.799Z,50.76
2019-04-22T22:06:40.444Z,51.13
2019-04-22T22:09:22.152Z,50.99
2019-04-22T22:12:10.384Z,51.42
2019-04-22T22:15:00.435Z,51.55
2019-04-22T22:17:31.246Z,51.28
2019-04-22T22:19:57.918Z,51.47
2019-04-22T22:25:17.926Z,51.88
2019-04-22T22:27:46.620Z,51.93
2019-04-22T22:30:42.835Z,52.05
2019-04-22T22:33:03.594Z,52.31
2019-04-22T22:35:36.110Z,52.41
2019-04-22T22:38:09.388Z,52.67
2019-04-22T22:40:26.117Z,53.32
2019-04-22T22:42:55.886Z,53.16
2019-04-22T22:45:33.839Z,53.29
2019-04-22T22:50:55.050Z,53.23
2019-04-22T22:53:34.007Z,53.29
2019-04-22T22:55:56.214Z,53.61
2019-04-22T22:58:34.062Z,53.89
2019-04-22T23:01:06.466Z,54.40
2019-04-22T23:03:51.482Z,54.37
2019-04-22T23:06:21.285Z,54.18
2019-04-22T23:08:49.445Z,54.08
2019-04-22T23:11:20.923Z,54.08
2019-04-22T23:13:54.220Z,54.22
2019-04-22T23:16:15.278Z,54.39
2019-04-22T23:18:55.390Z,54.70
2019-04-22T23:21:32.821Z,54.23
2019-04-22T23:24:16.078Z,54.01
2019-04-22T23:26:53.986Z,54.10
2019-04-22T23:29:39.553Z,54.46
2019-04-22T23:32:18.516Z,54.62
2019-04-22T23:35:00.295Z,54.40
2019-04-22T23:37:27.732Z,54.33
2019-04-22T23:40:16.226Z,54.13
2019-04-22T23:42:53.079Z,53.94
2019-04-22T23:45:22.544Z,54.01
2019-04-22T23:47:43.178Z,53.87
2019-04-22T23:50:26.103Z,53.67
2019-04-22T23:52:58.117Z,53.95
2019-04-22T23:55:34.059Z,54.08
2019-04-22T23:58:03.486Z,54.44
